Saturday, May 26, 2018, 5:13 AM CDT
Back to Local

KIGQ, Chicago, Lansing Municipal Airport

Location: Chicago Heights, IL, United States Lat: 41.54
Local Time: 5:13 AM CDT (10:13 GMT) Lon: -87.532
Time Zone: US/Central Elev: 616 ft

Show me the last for .
Show Decoded

2018-05-26 04:55 METAR KIGQ 260955Z AUTO 22004KT 10SM SCT090 BKN110 20/20 A2978 RMK AO2 T02010195
                 =
2018-05-26 04:35 METAR KIGQ 260935Z AUTO 23006KT 10SM SCT075 SCT090 OVC110 21/20 A2979 RMK AO2
                 T02050195 =
2018-05-26 04:15 METAR KIGQ 260915Z AUTO 23004KT 10SM OVC110 20/19 A2979 RMK AO2 T02010192 =
2018-05-26 03:55 METAR KIGQ 260855Z AUTO 24004KT 10SM OVC110 20/19 A2978 RMK AO2 T02030192 =
2018-05-26 03:35 METAR KIGQ 260835Z AUTO 22005KT 10SM OVC120 20/19 A2977 RMK AO2 T02000193 =
2018-05-26 03:15 METAR KIGQ 260815Z AUTO 20005KT 10SM OVC110 20/20 A2976 RMK AO2 T01980195 =
2018-05-26 02:55 METAR KIGQ 260755Z AUTO 19004KT 10SM SCT110 20/20 A2976 RMK AO2 T01950195 =
2018-05-26 02:35 METAR KIGQ 260735Z AUTO 21004KT 10SM SCT080 20/20 A2977 RMK AO2 T01970195 =
2018-05-26 02:15 METAR KIGQ 260715Z AUTO 19003KT 10SM SCT080 20/19 A2977 RMK AO2 T02000194 =
2018-05-26 01:55 METAR KIGQ 260655Z AUTO 17005KT 10SM CLR 20/19 A2977 RMK AO2 T02000193 =
2018-05-26 01:35 METAR KIGQ 260635Z AUTO 18003KT 10SM SCT120 20/20 A2978 RMK AO2 T02030196 =
2018-05-26 01:15 METAR KIGQ 260615Z AUTO 18004KT 10SM SCT120 21/20 A2979 RMK AO2 T02100197 =
2018-05-26 00:55 METAR KIGQ 260555Z AUTO 22005KT 10SM CLR 21/20 A2981 RMK AO2 T02140198 10276
                 20214 403150155 =
2018-05-26 00:35 METAR KIGQ 260535Z AUTO 23004KT 10SM SCT100 22/20 A2981 RMK AO2 T02180199 =
2018-05-26 00:15 METAR KIGQ 260515Z AUTO 22005KT 10SM BKN090 OVC110 22/21 A2981 RMK AO2 T02180206
                 =
2018-05-25 23:55 METAR KIGQ 260455Z AUTO 23007KT 10SM -DZ BKN110 22/21 A2982 RMK AO2 LTG DSNT NE
                 T02230205 =
2018-05-25 23:35 METAR KIGQ 260435Z AUTO 24008KT 10SM OVC110 23/21 A2982 RMK AO2 T02260205 =
2018-05-25 23:15 METAR KIGQ 260415Z AUTO 24005KT 10SM SCT070 BKN110 23/20 A2982 RMK AO2 T02260203
                 =
2018-05-25 22:55 METAR KIGQ 260355Z AUTO 26011G14KT 10SM -RA BKN070 OVC080 23/20 A2983 RMK AO2
                 T02310199 =
2018-05-25 22:35 METAR KIGQ 260335Z AUTO 22007KT 10SM OVC070 24/19 A2983 RMK AO2 T02400190 =
2018-05-25 22:15 METAR KIGQ 260315Z AUTO 24008KT 10SM BKN070 OVC090 24/19 A2983 RMK AO2 T02390187
                 =
2018-05-25 21:55 METAR KIGQ 260255Z AUTO 19003KT 10SM BKN090 OVC110 24/19 A2980 RMK AO2 T02350186
                 =
2018-05-25 21:35 METAR KIGQ 260235Z AUTO 00000KT 10SM SCT085 OVC100 23/19 A2980 RMK AO2 T02320188
                 =
2018-05-25 21:15 METAR KIGQ 260215Z AUTO 00000KT 10SM OVC085 25/18 A2979 RMK AO2 T02460183 =
2018-05-25 20:55 METAR KIGQ 260155Z AUTO 27003KT 10SM BKN085 BKN095 25/18 A2978 RMK AO2 T02490181
                 =
2018-05-25 20:35 METAR KIGQ 260135Z AUTO 31003KT 10SM SCT095 BKN120 25/18 A2978 RMK AO2 T02520179
                 =
2018-05-25 20:15 METAR KIGQ 260115Z AUTO 29003KT 10SM OVC120 26/18 A2978 RMK AO2 T02570180 =
2018-05-25 19:55 METAR KIGQ 260055Z AUTO 27009KT 10SM SCT120 26/18 A2979 RMK AO2 T02600183 =
2018-05-25 19:35 METAR KIGQ 260035Z AUTO 28006KT 10SM CLR 26/19 A2977 RMK AO2 T02640186 =
2018-05-25 19:15 METAR KIGQ 260015Z AUTO 27011G15KT 10SM SCT090 27/18 A2977 RMK AO2 LTG DSNT SW
                 T02700180 =
2018-05-25 18:55 METAR KIGQ 252355Z AUTO 00000KT 10SM OVC090 27/18 A2977 RMK AO2 T02720183 10315
                 20272 =
2018-05-25 18:35 METAR KIGQ 252335Z AUTO 07004KT 10SM OVC090 27/18 A2977 RMK AO2 T02720177 =
2018-05-25 18:15 METAR KIGQ 252315Z AUTO 00000KT 10SM OVC100 28/17 A2977 RMK AO2 T02810167 =
2018-05-25 17:55 METAR KIGQ 252255Z AUTO 06003KT 10SM SCT085 BKN110 29/18 A2977 RMK AO2 T02870181
                 =
2018-05-25 17:35 METAR KIGQ 252235Z AUTO 18004KT 10SM SCT085 29/18 A2978 RMK AO2 T02850180 =
2018-05-25 17:15 METAR KIGQ 252215Z AUTO 20003KT 10SM CLR 30/17 A2979 RMK AO2 T02990171 =
2018-05-25 16:55 METAR KIGQ 252155Z AUTO 18003KT 10SM SCT090 30/17 A2980 RMK AO2 T03020172 =
2018-05-25 16:35 METAR KIGQ 252135Z AUTO 19006KT 10SM BKN090 30/17 A2981 RMK AO2 T03000169 =
2018-05-25 16:15 METAR KIGQ 252115Z AUTO 19006KT 10SM BKN080 31/17 A2981 RMK AO2 T03060167 =
2018-05-25 15:55 METAR KIGQ 252055Z AUTO 13004KT 10SM BKN080 BKN110 31/17 A2982 RMK AO2 T03060169
                 =
2018-05-25 15:35 METAR KIGQ 252035Z AUTO 22008KT 10SM BKN080 OVC110 30/17 A2983 RMK AO2 T03020170
                 =
2018-05-25 15:15 METAR KIGQ 252015Z AUTO 16003KT 10SM BKN080 30/17 A2984 RMK AO2 T02950170 =
2018-05-25 14:55 METAR KIGQ 251955Z AUTO 00000KT 10SM SCT080 31/17 A2984 RMK AO2 T03100168 =
2018-05-25 14:35 METAR KIGQ 251935Z AUTO 00000KT 10SM SCT090 31/16 A2986 RMK AO2 T03070163 =
2018-05-25 14:15 METAR KIGQ 251915Z AUTO 22006KT 10SM SCT080 SCT100 29/17 A2986 RMK AO2 T02930165
                 =
2018-05-25 13:55 METAR KIGQ 251855Z AUTO 20005KT 10SM SCT090 30/17 A2988 RMK AO2 T02970170 =
2018-05-25 13:35 METAR KIGQ 251835Z AUTO 22003KT 10SM SCT075 SCT095 30/17 A2988 RMK AO2 T03030167
                 =
2018-05-25 13:15 METAR KIGQ 251815Z AUTO 22007KT 10SM SCT075 SCT085 30/17 A2990 RMK AO2 T02960173
                 =
2018-05-25 12:55 METAR KIGQ 251755Z AUTO 21005KT 10SM SCT065 30/17 A2991 RMK AO2 T03010170 10303
                 20195 =
2018-05-25 12:35 METAR KIGQ 251735Z AUTO 23008KT 190V270 10SM SCT065 SCT085 30/18 A2991 RMK AO2
                 T02970176 =
2018-05-25 12:15 METAR KIGQ 251715Z AUTO 23006KT 10SM SCT065 BKN085 29/17 A2992 RMK AO2 T02910174
                 =
2018-05-25 11:55 METAR KIGQ 251655Z AUTO 25006KT 10SM SCT075 29/17 A2993 RMK AO2 T02900170 =
2018-05-25 11:35 METAR KIGQ 251635Z AUTO 22006KT 10SM CLR 29/18 A2993 RMK AO2 T02910175 =
2018-05-25 11:15 METAR KIGQ 251615Z AUTO 23007KT 10SM CLR 29/18 A2994 RMK AO2 T02880176 =
2018-05-25 10:55 METAR KIGQ 251555Z AUTO 25006KT 10SM CLR 28/17 A2993 RMK AO2 T02820171 =
2018-05-25 10:35 METAR KIGQ 251535Z AUTO 22006KT 10SM CLR 28/18 A2994 RMK AO2 T02800178 =
2018-05-25 10:15 METAR KIGQ 251515Z AUTO 21009KT 10SM CLR 27/17 A2994 RMK AO2 T02740172 =
2018-05-25 09:55 METAR KIGQ 251455Z AUTO 22008KT 10SM CLR 27/17 A2995 RMK AO2 T02690169 =
2018-05-25 09:35 METAR KIGQ 251435Z AUTO 22006KT 10SM CLR 26/17 A2996 RMK AO2 T02630170 =
2018-05-25 09:15 METAR KIGQ 251415Z AUTO 22007KT 10SM CLR 26/17 A2996 RMK AO2 T02550165 =
2018-05-25 08:55 METAR KIGQ 251355Z AUTO 20008KT 10SM CLR 25/17 A2997 RMK AO2 T02470166 =
2018-05-25 08:35 METAR KIGQ 251335Z AUTO 21007KT 10SM CLR 24/17 A2997 RMK AO2 T02400165 =
2018-05-25 08:15 METAR KIGQ 251315Z AUTO 21006KT 10SM CLR 23/16 A2997 RMK AO2 T02310162 =
2018-05-25 07:55 METAR KIGQ 251255Z AUTO 21005KT 10SM CLR 22/16 A2997 RMK AO2 T02220160 =
2018-05-25 07:35 METAR KIGQ 251235Z AUTO 21005KT 10SM CLR 21/15 A2997 RMK AO2 T02110154 =
2018-05-25 07:15 METAR KIGQ 251215Z AUTO 19006KT 10SM CLR 20/15 A2997 RMK AO2 T02010151 =
2018-05-25 06:55 METAR KIGQ 251155Z AUTO 21004KT 10SM CLR 20/15 A2997 RMK AO2 T01950147 10195
                 20155 =
2018-05-25 06:35 METAR KIGQ 251135Z AUTO 20003KT 10SM CLR 18/15 A2997 RMK AO2 T01810145 =
2018-05-25 06:15 METAR KIGQ 251115Z AUTO 18003KT 10SM CLR 17/13 A2997 RMK AO2 T01710130 =
2018-05-25 05:55 METAR KIGQ 251055Z AUTO 00000KT 10SM CLR 17/13 A2998 RMK AO2 T01660125 =
2018-05-25 05:35 METAR KIGQ 251035Z AUTO 17003KT 10SM CLR 16/12 A2998 RMK AO2 T01610123 =
2018-05-25 05:15 METAR KIGQ 251015Z AUTO 20003KT 10SM CLR 16/12 A2999 RMK AO2 T01610122 =

Support USWX by starting your Amazon purchase here.